Time;durP1;ratioP1;P1;durP2;ratioP2;P2;SDS_P1;SDS_P2;PMS_P1;PMS_P2;Temp;Humidity;BMP_temperature;BMP_pressure;BME280_temperature;BME280_humidity;BME280_pressure;Samples;Min_cycle;Max_cycle;Signal;HPM_P1;HPM_P2
2023/09/26 00:00:20;;;;;;;6.85;3.92;;;15.00;99.90;;;;;;4964454;28;20046;-86
2023/09/26 00:02:49;;;;;;;7.68;3.78;;;15.00;99.90;;;;;;4970448;29;20040;-87
2023/09/26 00:05:18;;;;;;;10.48;4.35;;;14.90;99.90;;;;;;4964357;29;20131;-86
2023/09/26 00:07:45;;;;;;;7.13;4.03;;;14.90;99.90;;;;;;4949170;29;20050;-86
2023/09/26 00:10:12;;;;;;;7.88;4.05;;;14.80;99.90;;;;;;4969890;29;20551;-86
2023/09/26 00:12:39;;;;;;;7.07;4.18;;;14.80;99.90;;;;;;4968372;28;20118;-86
2023/09/26 00:15:07;;;;;;;9.63;3.92;;;14.70;99.90;;;;;;4955939;29;20085;-86
2023/09/26 00:17:34;;;;;;;7.72;3.88;;;14.70;99.90;;;;;;4959794;29;20439;-86
2023/09/26 00:20:15;;;;;;;7.38;3.50;;;14.60;99.90;;;;;;4972355;29;20127;-86
2023/09/26 00:22:42;;;;;;;9.25;3.95;;;14.60;99.90;;;;;;4962750;29;20047;-86
2023/09/26 00:25:10;;;;;;;6.70;3.95;;;14.50;99.90;;;;;;4956687;29;20050;-86
2023/09/26 00:27:37;;;;;;;7.20;3.92;;;14.50;99.90;;;;;;4958803;29;20046;-86
2023/09/26 00:30:04;;;;;;;6.65;4.13;;;14.30;99.90;;;;;;4957281;29;20479;-86
2023/09/26 00:32:30;;;;;;;8.60;4.20;;;14.40;99.90;;;;;;4969545;29;20040;-87
2023/09/26 00:34:57;;;;;;;6.18;3.78;;;14.40;99.90;;;;;;4968994;29;20066;-86
2023/09/26 00:37:24;;;;;;;7.93;4.10;;;14.30;99.90;;;;;;4957183;29;20031;-86
2023/09/26 00:39:51;;;;;;;5.13;3.55;;;14.30;99.90;;;;;;4961246;29;20051;-86
2023/09/26 00:42:18;;;;;;;9.35;4.05;;;14.20;99.90;;;;;;4969853;28;20050;-86
2023/09/26 00:44:45;;;;;;;7.18;4.30;;;14.20;99.90;;;;;;4957612;28;20069;-86
2023/09/26 00:47:12;;;;;;;7.68;4.13;;;14.10;99.90;;;;;;4957681;29;20055;-86
2023/09/26 00:49:39;;;;;;;6.80;3.83;;;14.10;99.90;;;;;;4959443;29;20054;-86
2023/09/26 00:52:06;;;;;;;8.60;3.95;;;14.00;99.90;;;;;;4961113;29;20066;-86
2023/09/26 00:54:33;;;;;;;8.52;3.85;;;14.00;99.90;;;;;;4964034;28;20077;-86
2023/09/26 00:57:01;;;;;;;8.07;3.75;;;13.90;99.90;;;;;;4972581;28;20466;-87
2023/09/26 00:59:28;;;;;;;8.68;4.03;;;13.80;99.90;;;;;;4967707;29;20046;-87
2023/09/26 01:01:55;;;;;;;7.35;3.78;;;13.70;99.90;;;;;;4969520;28;20105;-86
2023/09/26 01:04:22;;;;;;;6.95;3.90;;;13.70;99.90;;;;;;4956672;29;20031;-86
2023/09/26 01:06:49;;;;;;;7.45;4.15;;;13.70;99.90;;;;;;4971554;28;20074;-86
2023/09/26 01:09:17;;;;;;;8.32;3.95;;;13.60;99.90;;;;;;4975782;28;20043;-86
2023/09/26 01:11:44;;;;;;;6.65;4.40;;;13.50;99.90;;;;;;4971655;28;20071;-86
2023/09/26 01:14:10;;;;;;;7.70;4.05;;;13.40;99.90;;;;;;4958933;29;20047;-86
2023/09/26 01:16:38;;;;;;;6.75;4.15;;;13.40;99.90;;;;;;4952797;29;20083;-86
2023/09/26 01:19:05;;;;;;;6.78;4.05;;;13.30;99.90;;;;;;4947943;29;20035;-87
2023/09/26 01:21:32;;;;;;;7.93;4.18;;;13.30;99.90;;;;;;4961461;28;20043;-86
2023/09/26 01:23:59;;;;;;;9.13;4.50;;;13.30;99.90;;;;;;4975736;28;20042;-86
2023/09/26 01:26:34;;;;;;;7.78;4.50;;;13.20;99.90;;;;;;4962317;28;20130;-86
2023/09/26 01:29:01;;;;;;;7.90;4.60;;;13.20;99.90;;;;;;4966217;29;20043;-87
2023/09/26 01:31:27;;;;;;;8.32;4.35;;;13.10;99.90;;;;;;4972548;28;20035;-86
2023/09/26 01:33:54;;;;;;;7.53;4.40;;;13.00;99.90;;;;;;4965398;29;20039;-86
2023/09/26 01:36:22;;;;;;;9.55;4.60;;;13.00;99.90;;;;;;4954151;29;20175;-86
2023/09/26 01:38:48;;;;;;;7.15;4.60;;;13.00;99.90;;;;;;4961615;29;20043;-85
2023/09/26 01:41:15;;;;;;;9.80;4.85;;;13.00;99.90;;;;;;4968222;29;20035;-85
2023/09/26 01:43:41;;;;;;;9.32;4.97;;;12.90;99.90;;;;;;4967098;28;20513;-86
2023/09/26 01:46:09;;;;;;;8.05;5.22;;;12.90;99.90;;;;;;4962324;28;20195;-86
2023/09/26 01:48:35;;;;;;;9.32;4.72;;;12.80;99.90;;;;;;4967935;28;20102;-86
2023/09/26 01:51:05;;;;;;;7.80;5.03;;;12.80;99.90;;;;;;4956165;29;20137;-86
2023/09/26 01:53:35;;;;;;;8.98;5.22;;;12.80;99.90;;;;;;4955862;28;20050;-87
2023/09/26 01:56:02;;;;;;;7.10;5.00;;;12.80;99.90;;;;;;4967375;29;20043;-87
2023/09/26 01:58:28;;;;;;;8.32;5.50;;;12.70;99.90;;;;;;4968451;28;20047;-86
2023/09/26 02:00:55;;;;;;;7.28;4.68;;;12.70;99.90;;;;;;4952395;29;20071;-87
2023/09/26 02:03:21;;;;;;;9.10;4.90;;;12.70;99.90;;;;;;4951494;28;20491;-86
2023/09/26 02:05:48;;;;;;;9.43;4.80;;;12.70;99.90;;;;;;4963689;28;20529;-85
2023/09/26 02:08:16;;;;;;;9.82;4.80;;;12.70;99.90;;;;;;4958531;29;20046;-86
2023/09/26 02:10:44;;;;;;;7.57;4.82;;;12.70;99.90;;;;;;4948166;28;20783;-86
2023/09/26 02:13:10;;;;;;;9.13;4.55;;;12.70;99.90;;;;;;4974403;28;20066;-86
2023/09/26 02:15:37;;;;;;;15.35;5.00;;;12.60;99.90;;;;;;4973991;28;20050;-86
2023/09/26 02:18:05;;;;;;;7.35;4.70;;;12.80;99.90;;;;;;4970758;29;20043;-86
2023/09/26 02:20:31;;;;;;;10.68;4.63;;;12.60;99.90;;;;;;4955800;29;20083;-86
2023/09/26 02:22:58;;;;;;;7.68;4.97;;;12.60;99.90;;;;;;4956016;29;20039;-86
2023/09/26 02:25:25;;;;;;;10.40;5.30;;;12.60;99.90;;;;;;4955361;29;20130;-86
2023/09/26 02:27:53;;;;;;;7.90;4.88;;;12.50;99.90;;;;;;4965667;28;20114;-86
2023/09/26 02:30:26;;;;;;;7.85;5.18;;;12.50;99.90;;;;;;4967889;29;20550;-86
2023/09/26 02:32:52;;;;;;;7.85;4.90;;;12.40;99.90;;;;;;4973658;28;20074;-86
2023/09/26 02:35:19;;;;;;;7.00;4.72;;;12.40;99.90;;;;;;4974644;28;20074;-86
2023/09/26 02:37:46;;;;;;;8.15;5.13;;;12.40;99.90;;;;;;4960110;28;20039;-87
2023/09/26 02:40:14;;;;;;;8.50;5.43;;;12.40;99.90;;;;;;4971289;29;20082;-86
2023/09/26 02:42:44;;;;;;;10.20;4.75;;;12.30;99.90;;;;;;4974407;28;20494;-86
2023/09/26 02:45:13;;;;;;;9.68;5.18;;;12.30;99.90;;;;;;4971140;28;20089;-86
2023/09/26 02:47:40;;;;;;;8.70;5.13;;;12.30;99.90;;;;;;4961934;28;20066;-86
2023/09/26 02:50:07;;;;;;;8.32;5.18;;;12.20;99.90;;;;;;4972334;28;20039;-86
2023/09/26 02:52:36;;;;;;;10.93;5.10;;;12.30;99.90;;;;;;4984302;29;20039;-86
2023/09/26 02:55:03;;;;;;;8.05;5.07;;;12.20;99.90;;;;;;4967253;28;20047;-87
2023/09/26 02:57:33;;;;;;;10.05;5.75;;;12.20;99.90;;;;;;4976556;28;20485;-86
2023/09/26 03:00:00;;;;;;;7.72;5.05;;;12.20;99.90;;;;;;4964558;29;20047;-86
2023/09/26 03:02:27;;;;;;;9.38;4.72;;;12.20;99.90;;;;;;4981887;28;20415;-86
2023/09/26 03:04:53;;;;;;;9.80;5.20;;;12.10;99.90;;;;;;4965385;29;20047;-86
2023/09/26 03:07:20;;;;;;;9.18;5.45;;;12.10;99.90;;;;;;4958459;29;20101;-86
2023/09/26 03:09:46;;;;;;;9.25;5.78;;;12.10;99.90;;;;;;4957350;29;20400;-86
2023/09/26 03:12:13;;;;;;;8.40;5.25;;;12.00;99.90;;;;;;4958985;29;20031;-86
2023/09/26 03:14:40;;;;;;;8.93;5.63;;;12.00;99.90;;;;;;4958702;29;20500;-85
2023/09/26 03:17:06;;;;;;;11.40;5.20;;;12.00;99.90;;;;;;4959292;29;20043;-86
2023/09/26 03:19:33;;;;;;;10.50;5.70;;;12.00;99.90;;;;;;4971131;28;20039;-87
2023/09/26 03:22:00;;;;;;;13.38;5.93;;;12.00;99.90;;;;;;4953736;29;20036;-87
2023/09/26 03:24:27;;;;;;;8.55;5.55;;;12.00;99.90;;;;;;4974005;29;20071;-86
2023/09/26 03:26:53;;;;;;;10.05;5.60;;;11.90;99.90;;;;;;4971132;29;20083;-86
2023/09/26 03:29:20;;;;;;;10.73;5.55;;;11.90;99.90;;;;;;4951396;29;20075;-86
2023/09/26 03:31:47;;;;;;;9.38;5.78;;;11.90;99.90;;;;;;4964843;29;20039;-86
2023/09/26 03:34:13;;;;;;;9.55;5.60;;;11.80;99.90;;;;;;4958600;29;20043;-86
2023/09/26 03:36:40;;;;;;;9.20;5.97;;;11.90;99.90;;;;;;4970586;29;20119;-86
2023/09/26 03:39:07;;;;;;;10.20;6.10;;;11.80;99.90;;;;;;4956421;29;20118;-86
2023/09/26 03:41:34;;;;;;;11.38;5.70;;;11.90;99.90;;;;;;4965264;28;20042;-86
2023/09/26 03:44:00;;;;;;;9.23;5.53;;;11.80;99.90;;;;;;4955295;29;20102;-86
2023/09/26 03:46:27;;;;;;;8.82;5.50;;;11.80;99.90;;;;;;4957789;29;20043;-86
2023/09/26 03:48:54;;;;;;;11.63;6.03;;;11.80;99.90;;;;;;4958159;29;20487;-86
2023/09/26 03:51:21;;;;;;;9.75;5.82;;;11.70;99.90;;;;;;4958027;29;20042;-86
2023/09/26 03:53:48;;;;;;;9.77;6.72;;;11.70;99.90;;;;;;4959780;28;20042;-86
2023/09/26 03:56:14;;;;;;;8.90;6.35;;;11.60;99.90;;;;;;4968763;29;20391;-86
2023/09/26 03:58:41;;;;;;;11.88;5.93;;;11.70;99.90;;;;;;4976052;28;21312;-86
2023/09/26 04:01:13;;;;;;;8.90;6.00;;;11.70;99.90;;;;;;4967656;29;20043;-86
2023/09/26 04:03:46;;;;;;;8.55;6.20;;;11.60;99.90;;;;;;4968499;28;20057;-86
2023/09/26 04:06:13;;;;;;;8.90;5.63;;;11.70;99.90;;;;;;4963206;29;20035;-86
2023/09/26 04:08:39;;;;;;;12.10;6.47;;;11.60;99.90;;;;;;4962683;28;20038;-86
2023/09/26 04:11:13;;;;;;;9.57;6.32;;;11.60;99.90;;;;;;4965190;29;20044;-87
2023/09/26 04:13:39;;;;;;;12.77;6.07;;;11.60;99.90;;;;;;4944977;29;20078;-86
2023/09/26 04:16:06;;;;;;;10.40;6.13;;;11.60;99.90;;;;;;4978853;29;20047;-86
2023/09/26 04:18:33;;;;;;;10.48;5.97;;;11.60;99.90;;;;;;4957931;29;20043;-86
2023/09/26 04:21:04;;;;;;;9.57;6.07;;;11.60;99.90;;;;;;4968826;28;20058;-86
2023/09/26 04:23:31;;;;;;;8.32;6.18;;;11.50;99.90;;;;;;4957121;29;20057;-86
2023/09/26 04:25:58;;;;;;;12.30;6.60;;;11.50;99.90;;;;;;4968442;28;20125;-86
2023/09/26 04:28:25;;;;;;;10.55;6.47;;;11.50;99.90;;;;;;4968184;29;20039;-86
2023/09/26 04:30:52;;;;;;;9.98;6.40;;;11.50;99.90;;;;;;4968977;28;20138;-86
2023/09/26 04:33:18;;;;;;;12.02;6.50;;;11.50;99.90;;;;;;4957931;28;20074;-86
2023/09/26 04:35:45;;;;;;;9.02;5.88;;;11.50;99.90;;;;;;4975975;28;20066;-86
2023/09/26 04:38:11;;;;;;;9.50;6.25;;;11.50;99.90;;;;;;4970597;29;20051;-86
2023/09/26 04:40:38;;;;;;;8.73;5.97;;;11.50;99.90;;;;;;4969764;29;20508;-86
2023/09/26 04:43:05;;;;;;;9.40;6.05;;;11.90;99.90;;;;;;4965855;28;20053;-86
2023/09/26 04:45:32;;;;;;;9.95;6.15;;;11.90;99.90;;;;;;4957974;29;20040;-86
2023/09/26 04:48:02;;;;;;;9.00;6.38;;;11.50;99.90;;;;;;4959174;28;20036;-86
2023/09/26 04:50:29;;;;;;;10.98;6.18;;;11.40;99.90;;;;;;4937388;29;20040;-86
2023/09/26 04:52:57;;;;;;;10.82;6.38;;;11.40;99.90;;;;;;4945617;29;20036;-86
2023/09/26 04:55:24;;;;;;;9.30;6.18;;;11.40;99.90;;;;;;4983567;29;20039;-86
2023/09/26 04:57:50;;;;;;;13.45;6.82;;;11.70;99.90;;;;;;4972942;29;20039;-87
2023/09/26 05:00:17;;;;;;;9.35;6.60;;;11.40;99.90;;;;;;4946319;28;20036;-87
2023/09/26 05:02:45;;;;;;;9.50;6.38;;;11.40;99.90;;;;;;4956512;28;20097;-86
2023/09/26 05:05:12;;;;;;;9.75;6.10;;;11.40;99.90;;;;;;4946090;29;20500;-86
2023/09/26 05:07:43;;;;;;;16.02;6.22;;;11.40;99.90;;;;;;4942749;28;20036;-86
2023/09/26 05:10:13;;;;;;;11.70;6.25;;;11.40;99.90;;;;;;4972195;28;20094;-87
2023/09/26 05:12:41;;;;;;;11.00;6.78;;;11.40;99.90;;;;;;4971475;29;20035;-86
2023/09/26 05:15:13;;;;;;;10.35;6.53;;;11.60;99.90;;;;;;4955749;29;20515;-85
2023/09/26 05:17:47;;;;;;;11.20;6.60;;;11.40;99.90;;;;;;4976404;28;20082;-86
2023/09/26 05:20:14;;;;;;;9.60;6.78;;;11.40;99.90;;;;;;4971191;28;20523;-86
2023/09/26 05:22:43;;;;;;;11.02;6.65;;;11.40;99.90;;;;;;4955640;29;20543;-86
2023/09/26 05:25:11;;;;;;;13.18;6.60;;;11.40;99.90;;;;;;4944035;29;20035;-86
2023/09/26 05:27:39;;;;;;;9.60;6.70;;;11.50;99.90;;;;;;4950220;29;20043;-86
2023/09/26 05:30:07;;;;;;;13.80;6.68;;;11.40;99.90;;;;;;4945664;29;20516;-86
2023/09/26 05:32:33;;;;;;;11.18;6.72;;;11.40;99.90;;;;;;4949252;29;20075;-86
2023/09/26 05:35:00;;;;;;;9.82;6.55;;;11.40;99.90;;;;;;4950193;29;20077;-86
2023/09/26 05:37:27;;;;;;;9.48;6.80;;;11.40;99.90;;;;;;4962910;28;20113;-86
2023/09/26 05:39:54;;;;;;;10.90;6.20;;;11.40;99.90;;;;;;4974496;28;20039;-87
2023/09/26 05:42:22;;;;;;;10.00;6.05;;;11.50;99.90;;;;;;4963363;28;20101;-86
2023/09/26 05:44:48;;;;;;;10.73;6.47;;;11.40;99.90;;;;;;4961151;28;20510;-87
2023/09/26 05:47:15;;;;;;;10.50;6.57;;;11.50;99.90;;;;;;4964357;28;20122;-87
2023/09/26 05:49:42;;;;;;;11.18;6.97;;;11.50;99.90;;;;;;4959556;29;20044;-86
2023/09/26 05:52:08;;;;;;;14.43;6.35;;;11.50;99.90;;;;;;4956862;28;20032;-86
2023/09/26 05:54:35;;;;;;;12.88;6.53;;;11.50;99.90;;;;;;4959176;28;20526;-87
2023/09/26 05:57:03;;;;;;;12.20;6.85;;;11.60;99.90;;;;;;4957408;28;20082;-86
2023/09/26 05:59:30;;;;;;;12.07;6.53;;;11.60;99.90;;;;;;4962502;28;20039;-87
2023/09/26 06:01:57;;;;;;;11.32;6.28;;;11.60;99.90;;;;;;4962666;28;20171;-87
2023/09/26 06:04:23;;;;;;;10.80;6.70;;;11.60;99.90;;;;;;4960506;28;20114;-85
2023/09/26 06:06:50;;;;;;;9.35;6.55;;;11.60;99.90;;;;;;4947271;28;20136;-86
2023/09/26 06:09:17;;;;;;;11.30;6.53;;;11.80;99.90;;;;;;4961102;28;20039;-85
2023/09/26 06:11:43;;;;;;;11.73;6.80;;;11.70;99.90;;;;;;4952890;29;20051;-86
2023/09/26 06:14:10;;;;;;;11.80;6.72;;;11.70;99.90;;;;;;4949259;28;20062;-85
2023/09/26 06:16:37;;;;;;;11.65;6.75;;;11.80;99.90;;;;;;4966098;29;20051;-86
2023/09/26 06:19:04;;;;;;;10.07;6.78;;;11.80;99.90;;;;;;4955932;29;20050;-87
2023/09/26 06:21:31;;;;;;;11.23;7.70;;;11.90;99.90;;;;;;4964963;29;20047;-87
2023/09/26 06:23:57;;;;;;;12.35;7.60;;;12.00;99.90;;;;;;4955627;28;20054;-87
2023/09/26 06:26:24;;;;;;;13.38;7.70;;;12.20;99.90;;;;;;4941480;28;20044;-87
2023/09/26 06:28:51;;;;;;;14.15;8.35;;;12.00;99.90;;;;;;4960646;28;20048;-87
2023/09/26 06:31:18;;;;;;;12.85;7.90;;;12.50;99.90;;;;;;4955817;28;20034;-87
2023/09/26 06:33:44;;;;;;;15.00;7.63;;;12.20;99.90;;;;;;4961602;28;20035;-87
2023/09/26 06:36:18;;;;;;;16.17;7.60;;;12.20;99.90;;;;;;4958353;28;20078;-87
2023/09/26 06:38:45;;;;;;;11.23;7.93;;;12.30;99.90;;;;;;4958055;29;20047;-86
2023/09/26 06:41:11;;;;;;;11.50;7.95;;;12.40;99.90;;;;;;4972144;29;20103;-86
2023/09/26 06:43:38;;;;;;;12.95;8.10;;;12.40;99.90;;;;;;4981581;28;20071;-87
2023/09/26 06:46:06;;;;;;;10.02;7.15;;;12.40;99.90;;;;;;4966190;28;20043;-85
2023/09/26 06:48:41;;;;;;;12.30;7.55;;;12.50;99.90;;;;;;4967613;28;20035;-86
2023/09/26 06:51:08;;;;;;;10.63;7.45;;;12.60;99.90;;;;;;4952987;29;20046;-87
2023/09/26 06:53:36;;;;;;;10.80;6.97;;;12.60;99.90;;;;;;4963838;28;20403;-87
2023/09/26 06:56:08;;;;;;;10.10;7.28;;;12.70;99.90;;;;;;4966490;28;20467;-88
2023/09/26 06:58:36;;;;;;;12.50;7.50;;;12.70;99.90;;;;;;4964376;29;20480;-86
2023/09/26 07:01:03;;;;;;;11.65;7.35;;;12.70;99.90;;;;;;4961484;28;20047;-87
2023/09/26 07:03:32;;;;;;;12.15;7.72;;;12.80;99.90;;;;;;4969454;28;20559;-87
2023/09/26 07:06:08;;;;;;;13.25;8.02;;;12.80;99.90;;;;;;4960406;28;20122;-87
2023/09/26 07:08:34;;;;;;;12.85;7.80;;;12.90;99.90;;;;;;4954003;29;20036;-87
2023/09/26 07:11:08;;;;;;;12.55;8.18;;;13.00;99.90;;;;;;4967698;28;20043;-87
2023/09/26 07:13:35;;;;;;;12.98;7.95;;;13.00;99.90;;;;;;4961756;28;20051;-87
2023/09/26 07:16:04;;;;;;;12.80;7.53;;;13.10;99.90;;;;;;4969000;28;20448;-87
2023/09/26 07:18:31;;;;;;;14.98;7.72;;;13.20;99.90;;;;;;4972249;28;20528;-86
2023/09/26 07:21:09;;;;;;;11.57;7.68;;;13.20;99.90;;;;;;4942692;28;20047;-86
2023/09/26 07:23:37;;;;;;;12.73;7.25;;;13.20;99.90;;;;;;4964593;28;20121;-86
2023/09/26 07:26:20;;;;;;;11.82;7.88;;;13.30;99.90;;;;;;4970766;28;20518;-87
2023/09/26 07:28:48;;;;;;;10.43;7.22;;;13.40;99.90;;;;;;4944484;29;20046;-87
2023/09/26 07:31:16;;;;;;;12.85;7.30;;;13.50;99.90;;;;;;4965937;28;20126;-87
2023/09/26 07:33:44;;;;;;;10.65;7.45;;;13.50;99.90;;;;;;4954795;29;20035;-86
2023/09/26 07:36:11;;;;;;;11.23;7.18;;;13.60;99.90;;;;;;5001467;28;20439;-86
2023/09/26 07:38:38;;;;;;;13.20;7.32;;;13.50;99.90;;;;;;4963941;28;20062;-87
2023/09/26 07:41:04;;;;;;;13.82;7.25;;;13.80;99.90;;;;;;4969774;28;20073;-87
2023/09/26 07:43:34;;;;;;;13.65;7.53;;;13.80;99.90;;;;;;4952329;28;20416;-88
2023/09/26 07:46:09;;;;;;;11.88;7.45;;;13.90;99.90;;;;;;4958273;29;20050;-89
2023/09/26 07:48:37;;;;;;;11.83;7.10;;;14.00;99.90;;;;;;4966535;28;20149;-90
2023/09/26 07:51:05;;;;;;;10.05;7.22;;;14.20;99.90;;;;;;4977451;28;20078;-88
2023/09/26 07:53:32;;;;;;;11.75;7.15;;;14.20;99.90;;;;;;4952919;29;20463;-89
2023/09/26 07:55:59;;;;;;;9.02;6.90;;;14.30;99.90;;;;;;4958300;29;20047;-88
2023/09/26 07:58:26;;;;;;;11.18;7.10;;;14.40;99.90;;;;;;4958879;28;20138;-87
2023/09/26 08:00:54;;;;;;;11.68;6.95;;;14.50;99.90;;;;;;4974276;28;20049;-89
2023/09/26 08:03:21;;;;;;;9.60;6.68;;;14.50;99.90;;;;;;4964364;28;21335;-88
2023/09/26 08:05:48;;;;;;;12.43;7.35;;;14.60;99.90;;;;;;4973914;28;20410;-88
2023/09/26 08:08:15;;;;;;;10.63;6.50;;;14.60;99.90;;;;;;4961256;29;20043;-89
2023/09/26 08:10:42;;;;;;;11.40;7.63;;;14.70;99.90;;;;;;4967132;29;20050;-89
2023/09/26 08:13:09;;;;;;;13.05;7.47;;;14.80;99.90;;;;;;4949262;29;20039;-89
2023/09/26 08:15:36;;;;;;;10.80;7.43;;;14.90;99.90;;;;;;4970037;29;20040;-90
2023/09/26 08:18:04;;;;;;;14.35;7.03;;;15.10;99.90;;;;;;4960209;28;20038;-88
2023/09/26 08:20:31;;;;;;;10.55;6.75;;;15.20;99.90;;;;;;4967421;28;20043;-88
2023/09/26 08:22:57;;;;;;;11.38;7.25;;;15.30;99.90;;;;;;4961533;29;20236;-89
2023/09/26 08:25:25;;;;;;;11.18;7.13;;;15.40;99.90;;;;;;4957297;29;20134;-89
2023/09/26 08:27:52;;;;;;;9.98;6.93;;;15.40;99.90;;;;;;4957944;29;20110;-89
2023/09/26 08:30:18;;;;;;;10.60;6.88;;;15.40;99.90;;;;;;4965095;28;20043;-89
2023/09/26 08:32:45;;;;;;;10.85;7.22;;;15.50;99.90;;;;;;4967468;28;20042;-90
2023/09/26 08:35:12;;;;;;;10.85;6.45;;;15.60;99.90;;;;;;4970150;29;20415;-89
2023/09/26 08:37:40;;;;;;;10.02;6.82;;;15.70;99.90;;;;;;4958550;28;20076;-90
2023/09/26 08:40:10;;;;;;;10.20;6.25;;;15.80;99.90;;;;;;4969605;29;20039;-89
2023/09/26 08:42:40;;;;;;;14.40;6.82;;;16.00;99.90;;;;;;4957364;29;20039;-89
2023/09/26 08:45:07;;;;;;;10.38;6.50;;;16.00;99.90;;;;;;4961795;29;20047;-89
2023/09/26 08:47:39;;;;;;;11.65;6.88;;;16.10;99.90;;;;;;4976891;28;20035;-89
2023/09/26 08:50:07;;;;;;;10.50;6.40;;;16.20;99.90;;;;;;4954831;29;20047;-90
2023/09/26 08:52:34;;;;;;;9.57;6.63;;;16.30;99.90;;;;;;4968505;29;20101;-89
2023/09/26 08:55:01;;;;;;;11.55;6.32;;;16.30;99.90;;;;;;4971350;28;20068;-88
2023/09/26 08:57:28;;;;;;;13.65;5.90;;;16.50;99.90;;;;;;4967377;28;20042;-88
2023/09/26 08:59:55;;;;;;;13.23;6.22;;;16.60;99.90;;;;;;4961467;29;20039;-90
2023/09/26 09:02:22;;;;;;;12.93;6.75;;;16.70;99.90;;;;;;4958498;28;20523;-89
2023/09/26 09:04:49;;;;;;;8.40;5.78;;;16.80;99.90;;;;;;4965873;29;20043;-89
2023/09/26 09:07:15;;;;;;;9.15;5.57;;;16.90;99.90;;;;;;4959145;28;20035;-89
2023/09/26 09:10:02;;;;;;;9.57;5.72;;;16.90;99.90;;;;;;4969054;29;20047;-89
2023/09/26 09:12:29;;;;;;;9.40;6.30;;;16.90;99.90;;;;;;4969995;29;20508;-87
2023/09/26 09:14:55;;;;;;;12.70;5.85;;;16.80;99.90;;;;;;4949084;29;20074;-89
2023/09/26 09:17:22;;;;;;;10.45;6.43;;;16.90;99.90;;;;;;4969899;29;20036;-90
2023/09/26 09:19:52;;;;;;;9.73;5.93;;;16.90;99.90;;;;;;4978226;28;20118;-90
2023/09/26 09:22:20;;;;;;;8.82;6.13;;;17.00;99.90;;;;;;4944122;29;20047;-89
2023/09/26 09:24:54;;;;;;;13.23;6.20;;;17.00;99.90;;;;;;4956752;28;20065;-89
2023/09/26 09:27:38;;;;;;;10.02;5.80;;;17.10;99.90;;;;;;4945954;29;20036;-88
2023/09/26 09:30:08;;;;;;;11.07;6.45;;;17.20;99.90;;;;;;4952831;28;20502;-89
2023/09/26 09:32:35;;;;;;;11.20;5.97;;;17.30;99.90;;;;;;4967519;29;20039;-89
2023/09/26 09:35:03;;;;;;;13.25;6.00;;;17.30;99.90;;;;;;4965727;28;20399;-89
2023/09/26 09:37:30;;;;;;;17.00;6.47;;;17.40;99.90;;;;;;4971943;29;20126;-90
2023/09/26 09:39:58;;;;;;;9.32;5.70;;;17.50;99.90;;;;;;4972210;29;20114;-89
2023/09/26 09:42:25;;;;;;;9.30;5.40;;;17.60;99.90;;;;;;4957151;29;20078;-89
2023/09/26 09:44:52;;;;;;;8.60;5.47;;;17.60;99.90;;;;;;4972818;28;20078;-89
2023/09/26 09:47:25;;;;;;;9.02;6.00;;;17.70;99.90;;;;;;4965902;29;20035;-90
2023/09/26 09:49:52;;;;;;;10.30;5.95;;;17.80;99.90;;;;;;4951901;29;20046;-90
2023/09/26 09:52:20;;;;;;;11.27;6.32;;;17.90;99.90;;;;;;4946807;29;20047;-90
2023/09/26 09:54:48;;;;;;;9.25;6.40;;;17.90;99.90;;;;;;4937945;29;20044;-91
2023/09/26 09:57:17;;;;;;;10.52;5.78;;;18.00;99.90;;;;;;4947373;29;20094;-90
2023/09/26 09:59:45;;;;;;;10.32;6.22;;;18.10;99.90;;;;;;4944020;29;20070;-90
2023/09/26 10:02:15;;;;;;;10.23;5.90;;;18.20;99.90;;;;;;4965624;28;20039;-89
2023/09/26 10:04:44;;;;;;;8.05;5.35;;;18.30;99.90;;;;;;4956061;29;20047;-89
2023/09/26 10:07:12;;;;;;;11.80;5.53;;;18.40;99.90;;;;;;4956399;28;20127;-88
2023/09/26 10:09:40;;;;;;;7.82;5.00;;;18.50;99.90;;;;;;4948234;29;20095;-90
2023/09/26 10:12:09;;;;;;;10.85;6.00;;;18.60;99.90;;;;;;4945136;28;20071;-91
2023/09/26 10:14:36;;;;;;;8.43;6.20;;;18.60;99.90;;;;;;4966167;29;20129;-88
2023/09/26 10:17:05;;;;;;;8.40;5.38;;;18.60;99.90;;;;;;4947418;28;20125;-90
2023/09/26 10:19:34;;;;;;;7.43;5.57;;;18.60;99.90;;;;;;4957759;29;20057;-87
2023/09/26 10:22:17;;;;;;;7.57;5.20;;;18.60;99.90;;;;;;4956525;29;20043;-88
2023/09/26 10:24:48;;;;;;;8.25;5.05;;;18.70;99.90;;;;;;4953967;29;20131;-88
2023/09/26 10:27:24;;;;;;;9.32;4.70;;;18.80;99.90;;;;;;4964468;28;20043;-87
2023/09/26 10:29:52;;;;;;;9.73;4.93;;;18.90;99.90;;;;;;4958557;28;20088;-88
2023/09/26 10:32:43;;;;;;;7.60;4.80;;;18.90;99.90;;;;;;4961789;29;20047;-86
2023/09/26 10:35:15;;;;;;;7.03;4.63;;;19.00;99.90;;;;;;4944190;29;20047;-86
2023/09/26 10:37:52;;;;;;;9.13;5.00;;;19.00;99.90;;;;;;4957021;28;20102;-86
2023/09/26 10:40:19;;;;;;;8.20;4.85;;;19.00;99.90;;;;;;4956366;29;20488;-86
2023/09/26 10:42:48;;;;;;;7.90;4.88;;;19.00;99.90;;;;;;4965367;29;20046;-88
2023/09/26 10:45:16;;;;;;;9.07;4.65;;;19.10;99.90;;;;;;4943985;29;20512;-85
2023/09/26 10:47:44;;;;;;;8.52;4.95;;;19.10;99.90;;;;;;4951317;29;20043;-85
2023/09/26 10:50:14;;;;;;;8.77;4.80;;;19.20;99.90;;;;;;4967034;28;20039;-86
2023/09/26 10:52:46;;;;;;;8.27;4.72;;;19.20;99.90;;;;;;4968435;29;20579;-85
2023/09/26 10:55:18;;;;;;;8.40;4.50;;;19.30;99.90;;;;;;4962300;28;20091;-85
2023/09/26 10:57:45;;;;;;;6.97;4.18;;;19.30;99.90;;;;;;4964502;29;20050;-87
2023/09/26 11:00:13;;;;;;;7.05;4.30;;;19.40;99.90;;;;;;4977381;28;20567;-83
2023/09/26 11:02:42;;;;;;;6.65;4.70;;;19.50;99.90;;;;;;4942956;29;20093;-84
2023/09/26 11:05:12;;;;;;;7.13;4.45;;;19.60;99.90;;;;;;4976109;29;20042;-86
2023/09/26 11:07:42;;;;;;;6.60;4.07;;;19.70;99.90;;;;;;4972573;28;20086;-89
2023/09/26 11:10:13;;;;;;;6.55;4.57;;;19.70;99.90;;;;;;4964518;28;20050;-88
2023/09/26 11:12:40;;;;;;;8.02;5.03;;;19.70;99.90;;;;;;4960557;28;20931;-87
2023/09/26 11:15:08;;;;;;;6.43;4.25;;;19.70;99.90;;;;;;4963844;29;20488;-88
2023/09/26 11:17:38;;;;;;;6.40;4.35;;;19.70;99.90;;;;;;4956888;29;20039;-87
2023/09/26 11:20:11;;;;;;;7.90;4.40;;;19.80;99.90;;;;;;4966081;28;20039;-87
2023/09/26 11:22:48;;;;;;;6.38;3.80;;;19.80;99.90;;;;;;4967740;29;20035;-87
2023/09/26 11:25:15;;;;;;;7.13;3.90;;;19.80;99.90;;;;;;4959609;28;20067;-85
2023/09/26 11:27:44;;;;;;;6.45;3.92;;;19.90;99.90;;;;;;4975824;28;20082;-87
2023/09/26 11:30:19;;;;;;;7.00;3.75;;;20.00;99.90;;;;;;4963156;29;20047;-87
2023/09/26 11:32:50;;;;;;;9.30;4.10;;;20.00;99.90;;;;;;4960775;29;20043;-86
2023/09/26 11:35:17;;;;;;;5.97;3.13;;;20.10;99.90;;;;;;4958422;29;20064;-88
2023/09/26 11:37:49;;;;;;;5.90;3.53;;;20.10;99.90;;;;;;4966381;28;20471;-86
2023/09/26 11:40:26;;;;;;;5.50;3.17;;;20.10;99.90;;;;;;4966067;28;20385;-87
2023/09/26 11:42:55;;;;;;;6.32;2.88;;;20.10;99.90;;;;;;4970161;28;20054;-87
2023/09/26 11:45:27;;;;;;;5.70;3.38;;;20.10;99.90;;;;;;4960439;29;20094;-87
2023/09/26 11:47:56;;;;;;;6.07;3.65;;;20.20;99.90;;;;;;4958655;29;20035;-86
2023/09/26 11:50:24;;;;;;;6.03;3.50;;;20.10;99.90;;;;;;4954848;29;20040;-86
2023/09/26 11:52:51;;;;;;;6.70;3.53;;;20.20;99.90;;;;;;4985951;28;20047;-88
2023/09/26 11:55:18;;;;;;;5.45;3.35;;;20.20;99.90;;;;;;4965820;29;20594;-88
2023/09/26 11:57:45;;;;;;;8.00;3.13;;;20.20;99.90;;;;;;4950092;28;20040;-86
2023/09/26 12:00:16;;;;;;;6.85;3.50;;;20.20;99.90;;;;;;4951868;29;20051;-87
2023/09/26 12:02:44;;;;;;;5.68;3.53;;;20.20;99.90;;;;;;4973871;28;20051;-87
2023/09/26 12:05:11;;;;;;;6.72;3.00;;;20.20;99.90;;;;;;4976913;28;20133;-87
2023/09/26 12:07:41;;;;;;;6.15;3.20;;;20.20;99.90;;;;;;4978071;28;20066;-87
2023/09/26 12:10:09;;;;;;;5.93;3.65;;;20.20;99.90;;;;;;4966492;29;20095;-87
2023/09/26 12:12:37;;;;;;;5.38;3.22;;;20.20;99.90;;;;;;4956100;28;20031;-88
2023/09/26 12:15:20;;;;;;;5.65;3.28;;;20.20;99.90;;;;;;4958886;29;20487;-87
2023/09/26 12:17:54;;;;;;;5.10;3.25;;;20.20;99.90;;;;;;4953668;29;20480;-88
2023/09/26 12:20:24;;;;;;;8.30;3.58;;;20.20;99.90;;;;;;4982258;28;20043;-88
2023/09/26 12:22:52;;;;;;;5.50;3.10;;;20.20;99.90;;;;;;4961177;29;20492;-87
2023/09/26 12:25:22;;;;;;;6.35;3.25;;;20.20;99.90;;;;;;4957706;29;20392;-87
2023/09/26 12:27:52;;;;;;;6.18;3.58;;;20.20;99.90;;;;;;4970920;28;20038;-87
2023/09/26 12:30:20;;;;;;;8.07;3.35;;;20.20;99.90;;;;;;4982929;28;20587;-89
2023/09/26 12:32:47;;;;;;;8.88;3.30;;;20.30;99.90;;;;;;4941566;28;20071;-88
2023/09/26 12:35:14;;;;;;;6.03;3.20;;;20.30;99.90;;;;;;4969219;29;20073;-89
2023/09/26 12:37:41;;;;;;;5.13;3.00;;;20.30;99.90;;;;;;4963057;28;20074;-87
2023/09/26 12:40:12;;;;;;;6.50;3.38;;;20.30;99.90;;;;;;4975025;28;20050;-86
2023/09/26 12:42:41;;;;;;;5.22;3.30;;;20.20;99.90;;;;;;4954783;29;20093;-90
2023/09/26 12:45:09;;;;;;;8.50;3.35;;;20.30;99.90;;;;;;4947089;28;20047;-87
2023/09/26 12:47:36;;;;;;;10.32;3.45;;;20.30;99.90;;;;;;4963146;28;20035;-89